Time;durP1;ratioP1;P1;durP2;ratioP2;P2;SDS_P1;SDS_P2;PMS_P1;PMS_P2;Temp;Humidity;BMP_temperature;BMP_pressure;BME280_temperature;BME280_humidity;BME280_pressure;Samples;Min_cycle;Max_cycle;Signal;HPM_P1;HPM_P2
2021/12/15 00:01:37;;;;;;;63.33;27.10;;;;;;;;;;5032626;28;20280;-75
2021/12/15 00:04:04;;;;;;;62.43;27.20;;;;;;;;;;5032850;28;20291;-75
2021/12/15 00:06:30;;;;;;;59.50;27.20;;;;;;;;;;5015137;28;20288;-75
2021/12/15 00:08:57;;;;;;;59.97;26.20;;;;;;;;;;5032978;28;20402;-75
2021/12/15 00:11:31;;;;;;;61.40;25.87;;;;;;;;;;5032156;28;20888;-75
2021/12/15 00:13:58;;;;;;;69.13;26.60;;;;;;;;;;5032828;28;20355;-75
2021/12/15 00:16:24;;;;;;;54.87;24.10;;;;;;;;;;5032294;28;20375;-75
2021/12/15 00:18:50;;;;;;;61.70;25.43;;;;;;;;;;5032553;28;20291;-75
2021/12/15 00:21:18;;;;;;;60.00;26.17;;;;;;;;;;5032819;28;20351;-75
2021/12/15 00:23:46;;;;;;;64.43;27.40;;;;;;;;;;5032231;28;20284;-75
2021/12/15 00:26:13;;;;;;;62.17;26.93;;;;;;;;;;5032588;28;20367;-75
2021/12/15 00:28:39;;;;;;;54.87;25.80;;;;;;;;;;5032280;28;20604;-75
2021/12/15 00:31:05;;;;;;;57.10;25.53;;;;;;;;;;5032193;28;20710;-74
2021/12/15 00:33:32;;;;;;;58.97;26.50;;;;;;;;;;5032223;28;20327;-75
2021/12/15 00:35:59;;;;;;;60.37;28.80;;;;;;;;;;5032496;28;20368;-75
2021/12/15 00:38:25;;;;;;;58.60;25.50;;;;;;;;;;5032193;28;20367;-75
2021/12/15 00:40:51;;;;;;;61.03;26.53;;;;;;;;;;5032468;28;20860;-75
2021/12/15 00:43:18;;;;;;;53.60;26.20;;;;;;;;;;5032457;28;20276;-75
2021/12/15 00:45:44;;;;;;;61.33;27.13;;;;;;;;;;5032170;28;21324;-75
2021/12/15 00:48:10;;;;;;;62.03;27.37;;;;;;;;;;5032397;28;20618;-75
2021/12/15 00:50:37;;;;;;;64.10;27.70;;;;;;;;;;5031944;28;20276;-75
2021/12/15 00:53:04;;;;;;;56.83;26.60;;;;;;;;;;5032650;28;20287;-74
2021/12/15 00:55:31;;;;;;;61.43;26.53;;;;;;;;;;5032606;28;20287;-75
2021/12/15 00:57:58;;;;;;;58.17;28.30;;;;;;;;;;5036336;28;20644;-75
2021/12/15 01:00:27;;;;;;;58.07;27.97;;;;;;;;;;5018627;28;20715;-75
2021/12/15 01:02:54;;;;;;;64.83;29.83;;;;;;;;;;5036073;28;20284;-75
2021/12/15 01:05:23;;;;;;;63.27;28.90;;;;;;;;;;5036078;28;20280;-75
2021/12/15 01:07:50;;;;;;;66.33;31.63;;;;;;;;;;5035620;28;20363;-75
2021/12/15 01:10:22;;;;;;;57.10;28.17;;;;;;;;;;5035883;28;20374;-75
2021/12/15 01:21:10;;;;;;;68.32;31.58;;;;;;;;;;5035832;28;20375;-75
2021/12/15 01:23:36;;;;;;;72.73;31.30;;;;;;;;;;5035380;28;20181;-75
2021/12/15 01:26:07;;;;;;;63.83;29.87;;;;;;;;;;5018060;28;20319;-75
2021/12/15 01:28:33;;;;;;;62.60;30.27;;;;;;;;;;5035421;28;20334;-75
2021/12/15 01:31:00;;;;;;;63.30;30.37;;;;;;;;;;5018035;28;20307;-75
2021/12/15 01:33:27;;;;;;;70.77;33.37;;;;;;;;;;5035503;28;20364;-75
2021/12/15 01:35:54;;;;;;;71.90;32.57;;;;;;;;;;5035217;28;20292;-75
2021/12/15 01:38:22;;;;;;;73.37;32.43;;;;;;;;;;5035510;28;20291;-75
2021/12/15 01:40:48;;;;;;;71.27;32.63;;;;;;;;;;5035145;28;20280;-75
2021/12/15 01:43:19;;;;;;;64.27;31.00;;;;;;;;;;5035519;28;20299;-75
2021/12/15 01:48:33;;;;;;;71.17;31.17;;;;;;;;;;5034767;28;20394;-75
2021/12/15 01:50:59;;;;;;;69.27;31.47;;;;;;;;;;5017930;28;20307;-75
2021/12/15 01:53:25;;;;;;;64.83;30.27;;;;;;;;;;5035284;28;20276;-75
2021/12/15 01:55:52;;;;;;;66.80;32.20;;;;;;;;;;5034866;28;20284;-75
2021/12/15 01:58:18;;;;;;;72.33;33.30;;;;;;;;;;5035076;28;20621;-75
2021/12/15 02:00:47;;;;;;;67.37;32.57;;;;;;;;;;5034774;28;20659;-75
2021/12/15 02:03:13;;;;;;;67.50;30.97;;;;;;;;;;5034950;28;20327;-75
2021/12/15 02:05:40;;;;;;;70.87;31.60;;;;;;;;;;5034698;28;20619;-75
2021/12/15 02:08:07;;;;;;;72.37;32.87;;;;;;;;;;5034626;28;20363;-75
2021/12/15 02:10:36;;;;;;;76.87;34.00;;;;;;;;;;5016725;28;20334;-75
2021/12/15 02:13:04;;;;;;;66.50;31.70;;;;;;;;;;5017404;28;20448;-75
2021/12/15 02:15:35;;;;;;;65.03;31.40;;;;;;;;;;5016940;28;20381;-74
2021/12/15 02:18:02;;;;;;;70.83;32.30;;;;;;;;;;5017352;28;20289;-75
2021/12/15 02:20:30;;;;;;;74.77;34.40;;;;;;;;;;5034749;28;20284;-75
2021/12/15 02:22:56;;;;;;;75.83;34.73;;;;;;;;;;5034343;28;20276;-75
2021/12/15 02:25:22;;;;;;;74.53;35.57;;;;;;;;;;5034538;28;20403;-75
2021/12/15 02:27:48;;;;;;;80.27;34.97;;;;;;;;;;5034178;28;20358;-75
2021/12/15 02:30:42;;;;;;;85.53;35.20;;;;;;;;;;5034627;28;20675;-75
2021/12/15 02:38:35;;;;;;;80.20;34.00;;;;;;;;;;5034348;28;20280;-75
2021/12/15 02:41:09;;;;;;;79.33;36.20;;;;;;;;;;5034252;28;20315;-75
2021/12/15 02:43:35;;;;;;;80.00;35.63;;;;;;;;;;5034166;28;20334;-75
2021/12/15 02:46:02;;;;;;;81.47;34.67;;;;;;;;;;5034088;28;20288;-75
2021/12/15 02:48:28;;;;;;;84.83;36.33;;;;;;;;;;5034087;28;20342;-75
2021/12/15 02:50:55;;;;;;;77.60;34.97;;;;;;;;;;5033610;28;20300;-75
2021/12/15 02:53:21;;;;;;;78.03;35.77;;;;;;;;;;5034005;28;20426;-75
2021/12/15 02:55:47;;;;;;;78.70;36.40;;;;;;;;;;5033677;28;20640;-75
2021/12/15 02:58:13;;;;;;;73.97;34.60;;;;;;;;;;5033885;28;20283;-75
2021/12/15 03:00:53;;;;;;;78.63;36.53;;;;;;;;;;5033705;28;20373;-75
2021/12/15 03:04:01;;;;;;;71.67;36.30;;;;;;;;;;5034017;28;20695;-74
2021/12/15 03:06:21;;;;;;;68.35;32.10;;;;;;;;;;5032855;28;20284;-74
2021/12/15 03:16:46;;;;;;;69.97;34.58;;;;;;;;;;5033268;28;20068;-74
2021/12/15 03:19:13;;;;;;;71.67;33.43;;;;;;;;;;5033166;28;20049;-75
2021/12/15 03:21:39;;;;;;;70.83;32.13;;;;;;;;;;5033331;28;20284;-75
2021/12/15 03:24:11;;;;;;;63.43;31.13;;;;;;;;;;5033456;28;20280;-75
2021/12/15 03:26:43;;;;;;;64.90;30.47;;;;;;;;;;5033785;28;20279;-75
2021/12/15 03:35:19;;;;;;;64.45;30.30;;;;;;;;;;5033258;28;20045;-76
2021/12/15 03:37:36;;;;;;;67.60;31.70;;;;;;;;;;5030746;28;20494;-75
2021/12/15 03:40:08;;;;;;;64.53;30.60;;;;;;;;;;5032902;28;20345;-75
2021/12/15 03:42:37;;;;;;;66.33;31.73;;;;;;;;;;5033161;28;20288;-75
2021/12/15 03:45:08;;;;;;;64.60;31.10;;;;;;;;;;5032798;28;20284;-75
2021/12/15 03:47:35;;;;;;;58.93;29.77;;;;;;;;;;5033039;28;20362;-75
2021/12/15 03:50:03;;;;;;;58.70;29.70;;;;;;;;;;5032672;28;20295;-75
2021/12/15 03:52:30;;;;;;;60.73;30.53;;;;;;;;;;5015382;28;20336;-75
2021/12/15 03:54:56;;;;;;;61.03;32.70;;;;;;;;;;5032732;28;20284;-75
2021/12/15 03:57:22;;;;;;;56.77;30.53;;;;;;;;;;5032999;28;20284;-74
2021/12/15 03:59:49;;;;;;;60.03;29.87;;;;;;;;;;5032646;28;20277;-75
2021/12/15 04:02:17;;;;;;;66.40;30.50;;;;;;;;;;5033063;28;20280;-74
2021/12/15 04:04:45;;;;;;;67.93;32.23;;;;;;;;;;5032625;28;20357;-75
2021/12/15 04:07:11;;;;;;;66.90;31.70;;;;;;;;;;5032810;28;20756;-75
2021/12/15 04:09:38;;;;;;;69.70;33.57;;;;;;;;;;5032996;28;20624;-74
2021/12/15 04:12:04;;;;;;;70.47;32.47;;;;;;;;;;5032415;28;20296;-75
2021/12/15 04:14:41;;;;;;;68.00;31.73;;;;;;;;;;5032717;28;20276;-75
2021/12/15 04:17:17;;;;;;;68.27;32.27;;;;;;;;;;5032383;28;20300;-75
2021/12/15 04:19:44;;;;;;;62.80;32.03;;;;;;;;;;5032884;28;20363;-74
2021/12/15 04:22:10;;;;;;;65.10;31.93;;;;;;;;;;5032654;28;20316;-75
2021/12/15 04:24:36;;;;;;;58.63;30.97;;;;;;;;;;5015278;28;20303;-75
2021/12/15 04:27:03;;;;;;;62.93;31.77;;;;;;;;;;5014791;28;20287;-75
2021/12/15 04:29:29;;;;;;;70.80;31.90;;;;;;;;;;5033147;28;20324;-75
2021/12/15 04:32:07;;;;;;;67.57;32.50;;;;;;;;;;5036372;28;20307;-75
2021/12/15 04:34:34;;;;;;;60.83;30.17;;;;;;;;;;5036843;28;20286;-74
2021/12/15 04:37:00;;;;;;;74.13;31.70;;;;;;;;;;5036290;28;20284;-75
2021/12/15 04:39:28;;;;;;;64.23;31.67;;;;;;;;;;5036498;28;20284;-74
2021/12/15 04:41:55;;;;;;;60.97;31.00;;;;;;;;;;5036151;28;20280;-75
2021/12/15 04:44:23;;;;;;;59.47;31.03;;;;;;;;;;5036465;28;20284;-75
2021/12/15 04:46:58;;;;;;;54.97;28.57;;;;;;;;;;5018617;28;20379;-75
2021/12/15 04:49:24;;;;;;;61.88;29.40;;;;;;;;;;5036453;28;20288;-75
2021/12/15 04:51:50;;;;;;;67.60;31.17;;;;;;;;;;5035904;28;20156;-75
2021/12/15 04:54:17;;;;;;;60.57;29.83;;;;;;;;;;5036253;28;20288;-75
2021/12/15 04:56:43;;;;;;;57.97;28.70;;;;;;;;;;5036187;28;20359;-75
2021/12/15 04:59:10;;;;;;;62.87;30.63;;;;;;;;;;5035766;28;20458;-75
2021/12/15 05:01:36;;;;;;;64.83;29.37;;;;;;;;;;5036134;28;20276;-74
2021/12/15 05:04:03;;;;;;;63.63;29.63;;;;;;;;;;5035787;28;20628;-75
2021/12/15 05:06:29;;;;;;;64.20;31.77;;;;;;;;;;5036221;28;20359;-74
2021/12/15 05:08:55;;;;;;;62.30;30.87;;;;;;;;;;5035690;28;20366;-75
2021/12/15 05:11:21;;;;;;;66.13;32.60;;;;;;;;;;5035907;28;20387;-75
2021/12/15 05:13:48;;;;;;;59.73;30.03;;;;;;;;;;5036008;28;20367;-74
2021/12/15 05:16:16;;;;;;;72.17;32.67;;;;;;;;;;5035431;28;20375;-75
2021/12/15 05:18:43;;;;;;;71.37;33.43;;;;;;;;;;5035853;28;20448;-75
2021/12/15 05:21:10;;;;;;;78.07;33.50;;;;;;;;;;5035474;28;20284;-75
2021/12/15 05:23:37;;;;;;;64.63;32.43;;;;;;;;;;5035732;28;20690;-75
2021/12/15 05:26:03;;;;;;;69.60;34.17;;;;;;;;;;5035346;28;20280;-75
2021/12/15 05:28:29;;;;;;;71.30;34.40;;;;;;;;;;5035615;28;20280;-75
2021/12/15 05:30:56;;;;;;;65.53;33.63;;;;;;;;;;5017324;28;20784;-75
2021/12/15 05:33:23;;;;;;;67.87;33.27;;;;;;;;;;5035823;28;20281;-75
2021/12/15 05:35:50;;;;;;;65.63;32.97;;;;;;;;;;5035534;28;20280;-75
2021/12/15 05:38:17;;;;;;;67.97;32.87;;;;;;;;;;5035219;28;20318;-75
2021/12/15 05:40:43;;;;;;;70.90;32.83;;;;;;;;;;5035389;28;20289;-74
2021/12/15 05:43:09;;;;;;;67.50;32.10;;;;;;;;;;5034181;28;20703;-75
2021/12/15 05:45:38;;;;;;;71.33;33.37;;;;;;;;;;5017541;28;20292;-74
2021/12/15 05:48:05;;;;;;;81.27;35.40;;;;;;;;;;5034931;28;20320;-75
2021/12/15 05:50:32;;;;;;;67.60;31.97;;;;;;;;;;5034905;28;20280;-75
2021/12/15 05:53:00;;;;;;;62.40;31.80;;;;;;;;;;5034859;28;20300;-75
2021/12/15 05:55:27;;;;;;;69.23;32.37;;;;;;;;;;5035187;28;20311;-75
2021/12/15 05:57:53;;;;;;;63.13;30.67;;;;;;;;;;5035236;28;20311;-75
2021/12/15 06:00:21;;;;;;;62.97;31.27;;;;;;;;;;5035300;28;20299;-74
2021/12/15 06:02:47;;;;;;;66.10;32.43;;;;;;;;;;5034686;28;20764;-74
2021/12/15 06:05:15;;;;;;;64.93;31.67;;;;;;;;;;5017016;28;20714;-74
2021/12/15 06:07:41;;;;;;;66.87;30.77;;;;;;;;;;5034885;28;20346;-75
2021/12/15 06:10:09;;;;;;;64.30;31.87;;;;;;;;;;5034577;28;20312;-75
2021/12/15 06:12:35;;;;;;;66.63;32.13;;;;;;;;;;5034768;28;20788;-75
2021/12/15 06:15:02;;;;;;;61.33;29.53;;;;;;;;;;5034491;28;20272;-75
2021/12/15 06:17:29;;;;;;;67.07;31.93;;;;;;;;;;5016994;28;20288;-75
2021/12/15 06:19:56;;;;;;;57.43;29.93;;;;;;;;;;5034718;28;20292;-75
2021/12/15 06:22:26;;;;;;;70.43;32.27;;;;;;;;;;5017443;28;20315;-75
2021/12/15 06:24:53;;;;;;;62.33;30.53;;;;;;;;;;5034773;28;20614;-75
2021/12/15 06:27:20;;;;;;;62.70;31.17;;;;;;;;;;5016607;28;20362;-74
2021/12/15 06:29:48;;;;;;;62.87;30.43;;;;;;;;;;5034487;28;20280;-75
2021/12/15 06:32:15;;;;;;;56.83;29.43;;;;;;;;;;5016434;28;20701;-75
2021/12/15 06:34:41;;;;;;;65.23;30.70;;;;;;;;;;5034410;28;20282;-75
2021/12/15 06:37:07;;;;;;;66.83;29.73;;;;;;;;;;5034095;28;20360;-75
2021/12/15 06:39:34;;;;;;;60.87;30.03;;;;;;;;;;5034323;28;20359;-74
2021/12/15 06:42:00;;;;;;;54.37;28.27;;;;;;;;;;5016603;28;20295;-75
2021/12/15 06:44:26;;;;;;;58.80;28.97;;;;;;;;;;5034172;28;20284;-75
2021/12/15 07:00:25;;;;;;;56.42;27.00;;;;;;;;;;5033725;28;20061;-75
2021/12/15 07:02:52;;;;;;;55.47;27.27;;;;;;;;;;5033926;28;20064;-75
2021/12/15 07:05:19;;;;;;;56.30;29.40;;;;;;;;;;5015876;28;20831;-75
2021/12/15 07:07:46;;;;;;;53.03;28.17;;;;;;;;;;5016197;28;20713;-75
2021/12/15 07:10:14;;;;;;;55.07;26.53;;;;;;;;;;5033459;28;20327;-75
2021/12/15 07:12:40;;;;;;;53.97;27.67;;;;;;;;;;5033800;28;20299;-74
2021/12/15 07:15:07;;;;;;;51.63;26.47;;;;;;;;;;5033410;28;20280;-75
2021/12/15 07:17:35;;;;;;;60.83;27.13;;;;;;;;;;5012583;28;20297;-74
2021/12/15 07:22:36;;;;;;;48.90;24.53;;;;;;;;;;5013782;28;20281;-74
2021/12/15 07:25:04;;;;;;;48.30;25.45;;;;;;;;;;5012881;28;20772;-74
2021/12/15 07:27:30;;;;;;;48.53;22.53;;;;;;;;;;5013694;28;20050;-74
2021/12/15 07:29:56;;;;;;;40.20;21.87;;;;;;;;;;5013764;28;20284;-74
2021/12/15 07:32:22;;;;;;;48.10;23.00;;;;;;;;;;5013301;28;20297;-75
2021/12/15 07:34:48;;;;;;;40.27;20.80;;;;;;;;;;5013563;28;20306;-74
2021/12/15 07:37:14;;;;;;;40.00;20.23;;;;;;;;;;5013194;28;20372;-74
2021/12/15 07:39:47;;;;;;;38.53;18.23;;;;;;;;;;5012570;28;20289;-75
2021/12/15 07:42:15;;;;;;;41.83;20.00;;;;;;;;;;5013008;28;20761;-75
2021/12/15 07:44:41;;;;;;;52.63;21.33;;;;;;;;;;5013140;28;20874;-74
2021/12/15 07:47:08;;;;;;;46.63;20.53;;;;;;;;;;5013149;28;20283;-75
2021/12/15 07:49:35;;;;;;;38.90;21.57;;;;;;;;;;5012232;28;20368;-74
2021/12/15 07:52:04;;;;;;;42.53;21.53;;;;;;;;;;5011918;28;20368;-74
2021/12/15 07:54:36;;;;;;;53.93;23.20;;;;;;;;;;5013142;28;20411;-74
2021/12/15 07:57:06;;;;;;;46.50;22.83;;;;;;;;;;5013418;28;20288;-74
2021/12/15 07:59:32;;;;;;;51.77;24.40;;;;;;;;;;5013232;28;20321;-74
2021/12/15 08:01:58;;;;;;;48.43;24.53;;;;;;;;;;5013245;28;20284;-74
2021/12/15 08:04:24;;;;;;;43.50;23.23;;;;;;;;;;5012659;28;20288;-75
2021/12/15 08:06:50;;;;;;;45.33;25.30;;;;;;;;;;5011993;28;20702;-75
2021/12/15 08:09:17;;;;;;;52.20;25.53;;;;;;;;;;5012680;28;20360;-75
2021/12/15 08:11:43;;;;;;;58.10;25.17;;;;;;;;;;5013260;28;20322;-74
2021/12/15 08:14:10;;;;;;;48.23;23.73;;;;;;;;;;5012696;28;20281;-75
2021/12/15 08:16:36;;;;;;;52.60;23.83;;;;;;;;;;5018295;28;20300;-74
2021/12/15 08:19:02;;;;;;;43.20;22.67;;;;;;;;;;5032648;28;20291;-74
2021/12/15 08:21:29;;;;;;;56.27;24.03;;;;;;;;;;5032341;28;20291;-73
2021/12/15 08:23:55;;;;;;;48.33;23.07;;;;;;;;;;5032850;28;20280;-74
2021/12/15 08:26:22;;;;;;;48.27;22.90;;;;;;;;;;5032317;28;20606;-74
2021/12/15 08:28:48;;;;;;;44.00;22.03;;;;;;;;;;5032581;28;20287;-74
2021/12/15 08:31:14;;;;;;;48.93;23.20;;;;;;;;;;5032302;28;20339;-75
2021/12/15 08:33:40;;;;;;;52.40;23.07;;;;;;;;;;5032558;28;20367;-74
2021/12/15 08:36:08;;;;;;;44.33;21.97;;;;;;;;;;5032564;28;20414;-74
2021/12/15 08:38:36;;;;;;;43.10;20.87;;;;;;;;;;5032307;28;20341;-75
2021/12/15 08:41:08;;;;;;;43.67;21.33;;;;;;;;;;5032428;28;20284;-75
2021/12/15 08:43:34;;;;;;;42.13;20.60;;;;;;;;;;5032238;28;20406;-73
2021/12/15 08:46:06;;;;;;;46.63;21.63;;;;;;;;;;5015062;28;20402;-73
2021/12/15 08:48:34;;;;;;;45.00;21.10;;;;;;;;;;5032232;28;20288;-74
2021/12/15 08:51:00;;;;;;;39.30;21.33;;;;;;;;;;5032496;28;20288;-73
2021/12/15 08:53:27;;;;;;;51.77;21.13;;;;;;;;;;5014660;28;20276;-73
2021/12/15 08:55:53;;;;;;;38.63;20.30;;;;;;;;;;5015063;28;20409;-73
2021/12/15 08:58:21;;;;;;;51.13;22.33;;;;;;;;;;5032211;28;20312;-75
2021/12/15 09:00:47;;;;;;;48.83;21.07;;;;;;;;;;5032653;28;20280;-74
2021/12/15 09:03:15;;;;;;;39.67;21.33;;;;;;;;;;5032093;28;20699;-74
2021/12/15 09:05:42;;;;;;;37.73;20.40;;;;;;;;;;5032340;28;20291;-74
2021/12/15 09:08:09;;;;;;;42.30;19.87;;;;;;;;;;5032351;28;20284;-74
2021/12/15 09:10:37;;;;;;;37.57;19.17;;;;;;;;;;5032008;28;20276;-74
2021/12/15 09:13:04;;;;;;;40.40;18.63;;;;;;;;;;5032328;28;20350;-74
2021/12/15 09:15:31;;;;;;;33.50;16.33;;;;;;;;;;5031940;28;20280;-74
2021/12/15 09:17:57;;;;;;;31.20;15.90;;;;;;;;;;5013511;28;20340;-74
2021/12/15 09:20:25;;;;;;;27.53;14.50;;;;;;;;;;5015780;28;20292;-74
2021/12/15 09:22:51;;;;;;;26.40;15.07;;;;;;;;;;5016007;28;20321;-73
2021/12/15 09:25:17;;;;;;;29.00;14.37;;;;;;;;;;5015724;28;20363;-73
2021/12/15 09:27:44;;;;;;;28.47;15.00;;;;;;;;;;5015853;28;20828;-73
2021/12/15 09:30:12;;;;;;;29.93;16.40;;;;;;;;;;5015867;28;20799;-74
2021/12/15 09:32:38;;;;;;;30.83;16.23;;;;;;;;;;5014268;28;20359;-74
2021/12/15 09:35:05;;;;;;;32.93;16.70;;;;;;;;;;5014802;28;20324;-73
2021/12/15 09:37:31;;;;;;;37.27;17.53;;;;;;;;;;5015406;28;20367;-72
2021/12/15 09:39:57;;;;;;;31.73;16.83;;;;;;;;;;5015696;28;20283;-73
2021/12/15 09:42:30;;;;;;;31.80;16.60;;;;;;;;;;5015417;28;20334;-72
2021/12/15 09:45:16;;;;;;;31.67;17.03;;;;;;;;;;5014789;28;20289;-72
2021/12/15 10:11:56;;;;;;;29.90;16.25;;;;;;;;;;5015226;28;20301;-72
2021/12/15 10:20:16;;;;;;;29.75;15.75;;;;;;;;;;4993099;28;20054;-73
2021/12/15 10:22:46;;;;;;;28.37;14.63;;;;;;;;;;4992865;28;20107;-72
2021/12/15 10:25:20;;;;;;;33.23;15.43;;;;;;;;;;5014286;28;20350;-72
2021/12/15 10:28:10;;;;;;;28.20;15.50;;;;;;;;;;5034635;28;20284;-72
2021/12/15 10:30:38;;;;;;;21.33;13.50;;;;;;;;;;5026640;28;20303;-74
2021/12/15 10:33:13;;;;;;;28.20;14.87;;;;;;;;;;5016733;28;20340;-73
2021/12/15 10:35:45;;;;;;;19.40;12.37;;;;;;;;;;5016524;28;20707;-73
2021/12/15 10:38:18;;;;;;;23.30;12.60;;;;;;;;;;5017077;28;20300;-73
2021/12/15 10:40:46;;;;;;;22.37;12.60;;;;;;;;;;5034197;28;20280;-74
2021/12/15 10:43:13;;;;;;;22.73;12.30;;;;;;;;;;5034392;28;20367;-72
2021/12/15 10:45:41;;;;;;;20.60;10.97;;;;;;;;;;5034039;28;20339;-72
2021/12/15 10:48:14;;;;;;;17.50;11.60;;;;;;;;;;5034249;28;20281;-73
2021/12/15 10:50:42;;;;;;;19.80;10.13;;;;;;;;;;5034018;28;20295;-73
2021/12/15 10:53:08;;;;;;;17.40;9.77;;;;;;;;;;5034230;28;20306;-72
2021/12/15 10:55:36;;;;;;;18.50;9.70;;;;;;;;;;5016470;28;20391;-72
2021/12/15 10:58:22;;;;;;;19.47;9.37;;;;;;;;;;5034160;28;20288;-74
2021/12/15 11:00:48;;;;;;;19.70;9.20;;;;;;;;;;5016014;28;20324;-72
2021/12/15 11:03:17;;;;;;;20.33;10.70;;;;;;;;;;5033933;28;20276;-75
2021/12/15 11:05:43;;;;;;;18.50;9.23;;;;;;;;;;5033690;28;20280;-74
2021/12/15 11:08:09;;;;;;;20.77;9.33;;;;;;;;;;5033842;28;20292;-74
2021/12/15 11:10:37;;;;;;;16.00;9.07;;;;;;;;;;5033478;28;20284;-74
2021/12/15 11:13:05;;;;;;;21.87;10.07;;;;;;;;;;5033867;28;20441;-74
2021/12/15 11:15:36;;;;;;;16.10;9.27;;;;;;;;;;5023281;28;20744;-72
2021/12/15 11:18:05;;;;;;;19.30;9.73;;;;;;;;;;5021910;28;20348;-73
2021/12/15 11:20:37;;;;;;;16.70;8.90;;;;;;;;;;5015367;28;20335;-77
2021/12/15 11:23:11;;;;;;;17.67;8.40;;;;;;;;;;5013901;28;20360;-74
2021/12/15 11:25:39;;;;;;;17.60;8.53;;;;;;;;;;5013546;28;20292;-74
2021/12/15 11:28:08;;;;;;;17.33;10.33;;;;;;;;;;5013729;28;20835;-74
2021/12/15 11:30:34;;;;;;;23.00;8.87;;;;;;;;;;5013482;28;20289;-77
2021/12/15 11:33:02;;;;;;;16.13;8.07;;;;;;;;;;5013727;28;20733;-76
2021/12/15 11:35:30;;;;;;;19.10;8.60;;;;;;;;;;5013484;28;20419;-77
2021/12/15 11:38:05;;;;;;;20.03;9.30;;;;;;;;;;5013611;28;20281;-74
2021/12/15 11:40:34;;;;;;;17.45;8.35;;;;;;;;;;5012796;28;20285;-74
2021/12/15 11:43:00;;;;;;;20.40;9.17;;;;;;;;;;4995965;28;20057;-72
2021/12/15 11:45:28;;;;;;;22.60;10.20;;;;;;;;;;5013477;28;20371;-79
2021/12/15 11:48:11;;;;;;;19.97;9.40;;;;;;;;;;5013469;28;20284;-73
2021/12/15 11:50:41;;;;;;;21.17;9.30;;;;;;;;;;5013087;28;20284;-71
2021/12/15 11:53:12;;;;;;;16.83;7.00;;;;;;;;;;5013319;28;20297;-71
2021/12/15 11:55:38;;;;;;;14.33;6.37;;;;;;;;;;5013073;28;20628;-72
2021/12/15 11:58:04;;;;;;;17.30;7.33;;;;;;;;;;5013265;28;20335;-71
2021/12/15 12:00:31;;;;;;;20.03;8.60;;;;;;;;;;5013111;28;20359;-72
2021/12/15 12:02:58;;;;;;;20.13;8.80;;;;;;;;;;4980083;28;20714;-71
2021/12/15 12:05:27;;;;;;;14.23;7.57;;;;;;;;;;5013325;28;20400;-72
2021/12/15 12:08:00;;;;;;;18.07;7.83;;;;;;;;;;5012935;28;20316;-72
2021/12/15 12:10:48;;;;;;;20.80;7.20;;;;;;;;;;5013216;28;20360;-76
2021/12/15 12:13:20;;;;;;;19.90;7.10;;;;;;;;;;5013066;28;20355;-74
2021/12/15 12:15:48;;;;;;;13.00;5.47;;;;;;;;;;4995599;28;20292;-73
2021/12/15 12:18:15;;;;;;;13.53;5.87;;;;;;;;;;5013077;28;20724;-70
2021/12/15 12:20:46;;;;;;;18.57;5.07;;;;;;;;;;5012869;28;20289;-72
2021/12/15 12:23:13;;;;;;;14.30;4.93;;;;;;;;;;5013229;28;20688;-73
2021/12/15 12:25:41;;;;;;;15.53;4.67;;;;;;;;;;5012802;28;20273;-72
2021/12/15 12:28:10;;;;;;;11.13;4.53;;;;;;;;;;5013146;28;20280;-71
2021/12/15 12:30:41;;;;;;;17.10;5.73;;;;;;;;;;5012753;28;20367;-81
2021/12/15 12:33:09;;;;;;;14.07;5.17;;;;;;;;;;5012968;28;20296;-73
2021/12/15 12:35:39;;;;;;;8.97;3.53;;;;;;;;;;5012822;28;20297;-74
2021/12/15 12:38:08;;;;;;;11.73;4.30;;;;;;;;;;5012977;28;20289;-73
2021/12/15 12:40:37;;;;;;;17.23;4.10;;;;;;;;;;5012655;28;20281;-73
2021/12/15 12:43:18;;;;;;;11.07;4.23;;;;;;;;;;5013071;28;20380;-73
2021/12/15 12:45:52;;;;;;;12.53;3.60;;;;;;;;;;5012624;28;20320;-74
2021/12/15 12:48:36;;;;;;;10.45;3.65;;;;;;;;;;5013043;28;20356;-73
2021/12/15 12:59:36;;;;;;;10.60;2.57;;;;;;;;;;5016442;28;20753;-72
2021/12/15 13:02:06;;;;;;;6.47;2.07;;;;;;;;;;5016842;28;20285;-72
2021/12/15 13:04:43;;;;;;;9.57;2.60;;;;;;;;;;5016624;28;20613;-72
2021/12/15 13:07:10;;;;;;;9.70;2.17;;;;;;;;;;4999457;28;20322;-72
2021/12/15 13:09:45;;;;;;;12.30;2.63;;;;;;;;;;5016363;28;20448;-73
2021/12/15 13:12:22;;;;;;;7.13;2.60;;;;;;;;;;5016258;28;20308;-72
2021/12/15 13:14:48;;;;;;;9.17;2.30;;;;;;;;;;5015974;28;20284;-73
2021/12/15 13:17:20;;;;;;;12.50;2.63;;;;;;;;;;5015982;28;20753;-76
2021/12/15 13:19:46;;;;;;;7.57;2.40;;;;;;;;;;4982924;28;20285;-75
2021/12/15 13:30:26;;;;;;;9.30;2.40;;;;;;;;;;5015806;28;20273;-70
2021/12/15 13:32:54;;;;;;;6.17;2.07;;;;;;;;;;5015572;28;20336;-70
2021/12/15 13:35:27;;;;;;;8.93;2.47;;;;;;;;;;5015914;28;20633;-73
2021/12/15 13:38:02;;;;;;;6.63;2.37;;;;;;;;;;5015628;28;20692;-73
2021/12/15 13:40:47;;;;;;;9.38;2.20;;;;;;;;;;5015878;28;20287;-72
2021/12/15 13:43:31;;;;;;;8.73;2.67;;;;;;;;;;5019338;28;20092;-74
2021/12/15 13:45:57;;;;;;;13.10;2.38;;;;;;;;;;5007564;28;20053;-75
2021/12/15 13:48:42;;;;;;;7.40;1.93;;;;;;;;;;5024219;28;20041;-74
2021/12/15 13:51:09;;;;;;;10.50;2.65;;;;;;;;;;5026082;28;20276;-70
2021/12/15 13:53:35;;;;;;;8.63;2.50;;;;;;;;;;5024704;28;20078;-70
2021/12/15 13:56:01;;;;;;;5.50;2.10;;;;;;;;;;5006482;28;20360;-70
2021/12/15 13:58:31;;;;;;;8.60;2.60;;;;;;;;;;5019813;28;20285;-70
2021/12/15 14:00:59;;;;;;;6.00;1.93;;;;;;;;;;5034421;28;20315;-71
2021/12/15 14:03:28;;;;;;;7.07;2.63;;;;;;;;;;5030627;28;20389;-73
2021/12/15 14:05:57;;;;;;;8.53;2.13;;;;;;;;;;5025738;28;20288;-71
2021/12/15 14:08:39;;;;;;;8.63;2.00;;;;;;;;;;5029045;28;20292;-72
2021/12/15 14:11:08;;;;;;;4.77;1.60;;;;;;;;;;5021621;28;20284;-78
2021/12/15 14:13:39;;;;;;;6.67;1.87;;;;;;;;;;5028134;28;20266;-80
2021/12/15 14:16:05;;;;;;;5.13;1.67;;;;;;;;;;5013096;28;20289;-77
2021/12/15 14:18:35;;;;;;;8.07;2.30;;;;;;;;;;5003222;28;20520;-79
2021/12/15 14:21:10;;;;;;;8.83;1.60;;;;;;;;;;5009158;28;20304;-71
2021/12/15 14:23:38;;;;;;;6.40;1.92;;;;;;;;;;5003484;28;20290;-72
2021/12/15 14:26:06;;;;;;;6.00;1.77;;;;;;;;;;5019597;28;20075;-72
2021/12/15 14:28:37;;;;;;;5.07;1.40;;;;;;;;;;5025320;28;20319;-72
2021/12/15 14:31:05;;;;;;;6.00;2.00;;;;;;;;;;5027349;28;20284;-72
2021/12/15 14:33:33;;;;;;;8.70;2.20;;;;;;;;;;4995506;28;20799;-74
2021/12/15 14:36:00;;;;;;;7.50;1.90;;;;;;;;;;4988709;28;20284;-73
2021/12/15 14:38:35;;;;;;;5.40;1.50;;;;;;;;;;5003902;28;20346;-72
2021/12/15 14:41:23;;;;;;;8.43;2.00;;;;;;;;;;4991694;28;20378;-70
2021/12/15 14:43:55;;;;;;;11.17;1.80;;;;;;;;;;5009484;28;20049;-70
2021/12/15 14:46:23;;;;;;;8.03;1.67;;;;;;;;;;5022494;28;20356;-72
2021/12/15 14:48:57;;;;;;;5.27;1.80;;;;;;;;;;5024353;28;20372;-72
2021/12/15 14:51:24;;;;;;;8.17;1.57;;;;;;;;;;5013951;28;20308;-73
2021/12/15 14:53:50;;;;;;;4.17;1.40;;;;;;;;;;5012498;28;20780;-70
2021/12/15 14:56:17;;;;;;;6.77;1.40;;;;;;;;;;5007931;28;20277;-73
2021/12/15 14:58:43;;;;;;;4.70;1.63;;;;;;;;;;5009320;28;20441;-73
2021/12/15 15:01:15;;;;;;;9.40;1.57;;;;;;;;;;5008301;28;20281;-76
2021/12/15 15:03:56;;;;;;;5.57;1.60;;;;;;;;;;5004566;28;20392;-74
2021/12/15 15:06:26;;;;;;;7.47;1.70;;;;;;;;;;5018811;28;20308;-81
2021/12/15 15:08:52;;;;;;;5.17;1.37;;;;;;;;;;4990848;28;20446;-74
2021/12/15 15:11:22;;;;;;;7.03;1.60;;;;;;;;;;5019668;28;20284;-77
2021/12/15 15:13:52;;;;;;;5.47;1.50;;;;;;;;;;5007282;28;20281;-75
2021/12/15 15:16:22;;;;;;;7.33;1.60;;;;;;;;;;5017297;28;20292;-77
2021/12/15 15:18:49;;;;;;;7.60;1.30;;;;;;;;;;5008522;28;20391;-78
2021/12/15 15:21:15;;;;;;;6.07;1.77;;;;;;;;;;4991419;28;20292;-76
2021/12/15 15:23:43;;;;;;;5.30;1.83;;;;;;;;;;5009487;28;20281;-75
2021/12/15 15:26:10;;;;;;;6.57;1.27;;;;;;;;;;5013589;28;20323;-75
2021/12/15 15:28:39;;;;;;;7.27;1.60;;;;;;;;;;5013777;28;20269;-75
2021/12/15 15:31:07;;;;;;;6.67;1.50;;;;;;;;;;4996103;28;20381;-75
2021/12/15 15:33:34;;;;;;;6.53;1.33;;;;;;;;;;5013493;28;20789;-74
2021/12/15 15:36:03;;;;;;;6.00;1.63;;;;;;;;;;5013339;28;20316;-72
2021/12/15 15:38:39;;;;;;;7.07;1.50;;;;;;;;;;5013703;28;20285;-72
2021/12/15 15:41:07;;;;;;;5.80;1.70;;;;;;;;;;5013139;28;20484;-77
2021/12/15 15:43:37;;;;;;;7.00;1.90;;;;;;;;;;4995428;28;20379;-77
2021/12/15 15:46:05;;;;;;;5.40;1.80;;;;;;;;;;5013037;28;20352;-77
2021/12/15 15:48:32;;;;;;;8.50;2.23;;;;;;;;;;5012132;28;20285;-77
2021/12/15 15:51:04;;;;;;;8.97;1.90;;;;;;;;;;5012959;28;20283;-77
2021/12/15 15:53:31;;;;;;;4.97;2.03;;;;;;;;;;5013187;28;20860;-77
2021/12/15 15:56:05;;;;;;;7.97;1.97;;;;;;;;;;5012613;28;20288;-78
2021/12/15 15:58:32;;;;;;;7.65;1.77;;;;;;;;;;4996088;28;20772;-77
2021/12/15 16:00:59;;;;;;;5.40;1.90;;;;;;;;;;5012853;28;20125;-77
2021/12/15 16:03:27;;;;;;;14.33;1.90;;;;;;;;;;5012878;28;20273;-76
2021/12/15 16:05:56;;;;;;;5.87;1.50;;;;;;;;;;5012943;28;20281;-77